Skip Navigation Links Skip Navigation Links

Current Weather

Manistee Co.-Blacker, Manistee, Mich.

For information only: do not use for flight planning or navigation.
Latest weather
Observation time Friday, May 29, 2020 6:56 PM EDT
Local time Friday, May 29, 2020 7:22 PM EDT
Flight conditions Visual Meteorological Conditions
Winds
Wind direction West (280°)
Wind speed 13 mph
Visibility 10 mi.
Sky condition
Ceiling unlimited
Cloud layer scattered clouds 7,500 ft.
Temperature 62°F
Dewpoint 50°F
Altimeter 29.97 in.Hg
Derived measurements
Relative humidity 65%
Density altitude 940 ft.
Sea-level pressure 29.97 in.Hg
Remarks
Fully automated report.
Automated weather observing station with precipitation discriminator.
METAR KMBL 292256Z AUTO 28011KT 10SM SCT075 17/10 A2997 RMK AO2 SLP149 T01670100

Settings

Location code

InnerDrive.Weather 4.0.6770.0 Release CLR 4.0.30319.42000
Copyright ©2018 Inner Drive Technology. All rights reserved. Portions Copyright ©1986-2018 David Braverman.

Find weather

Site navigation


Skip Navigation Links

Place info

Page info

PayPal - The safer, easier way to pay online!

Return home.

Copyright ©2020 Inner Drive Technology. Purveyors of fine, hand-crafted computer software. Page printed 2020-05-29T23:22:56 UTC.